Airfield :
LOGIN :

Register | Disclaimer

   EN    FR    IT 

 










Legend :    VFR   Marginal VFR   IFR   Intensive IFR   Very Intensive IFR
Visi :
Ceiling :
>= 8 km
>= 3000ft
5 to 8 km
1000 to 3000 ft
1500m to 5 km
500 to 1000 ft
800 to 1500m
200 to 500 ft
< 800m
< 200 ft
Symbols :   Thunderstorms  Fog  Heavy snow  Heavy precipitations  Wind > 20 kt
SIGMETs :     Misc.  Thunderstorms  Icing  Turbulence  Mountain Waves  Volcanic Ashes






- Airport Elevation : 277 ft
- IATA code : JER


EGJJ - Jersey

CURRENT METAR :
  • 141250Z 22012KT 190V250 9999 FEW018CB 17/12 Q1004

EXPIRED METARs :
  • 141220Z 21012KT 9999 VCSH FEW018CB 16/12 Q1004
  • 141150Z 22013KT 180V240 9999 FEW018TCU 15/11 Q1005
  • 141120Z 22014KT 9999 FEW018 SCT026 16/11 Q1005
  • 141050Z 22014KT 190V250 9999 FEW016 17/11 Q1005
  • 141020Z 23015KT 9999 FEW016 17/12 Q1005
  • 140950Z 24017KT 9999 VCSH FEW017 15/12 Q1005
  • 140920Z 24017KT 9999 FEW017 15/11 Q1005
  • 140850Z 24019KT 9999 SCT015 15/11 Q1005

TAF TAF EGJJ
Valid from the 14 at 12:00 until the 14 at 21:00 UTC


141054Z 1412/1421 23014KT 9999 FEW016 SCT025
PROB40
TEMPO 1412/1421 6000 SHRA FEW008 BKN012TCU
PROB30
TEMPO 1418/1421 24018G30KT 4000 +SHRA BKN008 BKN010CB
ATIS : +44 1534 498 073



MET'MAP, your aeronautical weather chart ! - Copyright ORBIFLY December 2007 - Disclaimer

ORBIFLY MET'MAP TEAM :

Programming & Development : Alexandra Zaïnal
Original concept : Baudouin d'Aumeries
Technical & hardware support : Manuel Goepfert
Assistance : Marc-Olivier Méhu




SOURCES & CREDITS :

   NOAA